Salem, KY (42078)

11:22 PM CST on March 04, 2015 (GMT -0600)
Calvert City | Change Station
CLOSE
Current Station
Personal Weather Station
Location: Calvert City, KY
Elevation: 364 ft
Nearby Weather Stations
Active Advisory: Winter Storm Warning

Elev 364 ft 37.02 °N, 88.33 °W | Updated 5 seconds ago

Snow
Snow
19.2 °F
Feels Like 10 °F
N
6.9
Wind Variable Wind from North
Gusts 18.3 mph

Today
High -- | Low -- °F
--% Chance of Precip.
Yesterday
High -- | Low -- °F
Precip. -- in
6:20 AM 5:49 PM
Full, 100% visible
Pressure 30.32 in
Visibility -9999.0 miles
Clouds Overcast 500 ft
Windchill 10 °F
Dew Point 16 °F
Humidity 88%
Rainfall in
Snow Depth Not available.
UV 0 out of 12
Pollen .90 out of 12
Air Quality Not available.
Flu Activity Not available.
METAR KM30 050515Z AUTO 36010G15KT OVC005 M07/M07 A3032 RMK AO2 T10701070 PWINO

More Conditions Fewer Conditions

Pressure 30.32 in
Visibility -9999.0 miles
Clouds Overcast 500 ft
Windchill 10 °F
Dew Point 16 °F
Humidity 88%
Rainfall in
Snow Depth Not available.
UV 0 out of 12
Pollen .90 out of 12
Air Quality Not available.
Flu Activity Not available.
METAR KM30 050515Z AUTO 36010G15KT OVC005 M07/M07 A3032 RMK AO2 T10701070 PWINO

More Conditions Fewer Conditions

10-Day Weather Forecast

Almanac

Astronomy

Mar. 04, 2015 Rise Set
Actual Time
Civil Twilight
Nautical Twilight
Astronomical Twilight
Moon
Length of Visible Light
Length of Day
Tomorrow will be .
, % of the Moon is Illuminated

Today's Extremes

State Highs State Lows

Community

WunderPhotos

Upload Photos

1,802,686 photos uploaded!

WunderBlogs® & News

Nearby

Air Quality

  Air Quality AQ Index Pollutant
Not available.

Snow Depth

Station Depth Elevation

Earthquake Activity

City Distance Mag. Time & Date
Minimum magnitude displayed is 2.5.

Coastal Water Temperatures

Place Temperature

Nearby Weather Stations

Winter Storm Warning
Statement as of 8:57 PM CST on March 04, 2015

... Winter Storm Warning remains in effect until 6 am CST
Thursday...

A Winter Storm Warning remains in effect until 6 am CST Thursday.

* Timing: sleet in Christian and Todd counties in Kentucky will
change over to all snow by 11 PM. Elsewhere... moderate to heavy
snow will continue through the late evening. The snows will
taper off from northwest to southeast overnight.

* Main impact: total sleet and snow accumulations will generally
range from 6 to 10 inches across the region. Some locally higher
amounts will be possible. Gusty north winds will cause
significant snow drifts.

* Other impacts: roads throughout the region have become slick and
hazardous. Travel is strongly discouraged tonight.

Precautionary/preparedness actions...

A Winter Storm Warning means significant amounts of snow and
sleet are expected or occurring. Gusty winds are also possible.
This will make travel very hazardous or impossible.



Drs